sensor_id;sensor_type;location;lat;lon;timestamp;temperature;humidity
24049;DHT22;12250;50.956;4.746;2024-02-23T00:01:41;5.90;99.90
24049;DHT22;12250;50.956;4.746;2024-02-23T00:04:07;6.00;99.90
24049;DHT22;12250;50.956;4.746;2024-02-23T00:06:34;6.00;99.90
24049;DHT22;12250;50.956;4.746;2024-02-23T00:09:00;6.00;99.90
24049;DHT22;12250;50.956;4.746;2024-02-23T00:11:25;6.10;99.90
24049;DHT22;12250;50.956;4.746;2024-02-23T00:13:53;6.10;99.90
24049;DHT22;12250;50.956;4.746;2024-02-23T00:16:19;6.10;99.90
24049;DHT22;12250;50.956;4.746;2024-02-23T00:18:45;6.10;99.90
24049;DHT22;12250;50.956;4.746;2024-02-23T00:21:10;6.00;99.90
24049;DHT22;12250;50.956;4.746;2024-02-23T00:23:36;6.10;99.90
24049;DHT22;12250;50.956;4.746;2024-02-23T00:26:02;5.90;99.90
24049;DHT22;12250;50.956;4.746;2024-02-23T00:28:28;5.90;99.90
24049;DHT22;12250;50.956;4.746;2024-02-23T00:30:53;6.00;99.90
24049;DHT22;12250;50.956;4.746;2024-02-23T00:33:19;5.90;99.90
24049;DHT22;12250;50.956;4.746;2024-02-23T00:35:45;5.90;99.90
24049;DHT22;12250;50.956;4.746;2024-02-23T00:38:10;5.90;99.90
24049;DHT22;12250;50.956;4.746;2024-02-23T00:40:36;5.90;99.90
24049;DHT22;12250;50.956;4.746;2024-02-23T00:43:02;6.00;99.90
24049;DHT22;12250;50.956;4.746;2024-02-23T00:45:28;6.00;99.90
24049;DHT22;12250;50.956;4.746;2024-02-23T00:47:54;6.10;99.90
24049;DHT22;12250;50.956;4.746;2024-02-23T00:50:20;6.10;99.90
24049;DHT22;12250;50.956;4.746;2024-02-23T00:52:45;6.10;99.90
24049;DHT22;12250;50.956;4.746;2024-02-23T00:55:11;6.00;99.90
24049;DHT22;12250;50.956;4.746;2024-02-23T00:57:38;6.00;99.90
24049;DHT22;12250;50.956;4.746;2024-02-23T01:00:04;5.90;99.90
24049;DHT22;12250;50.956;4.746;2024-02-23T01:02:31;6.00;99.90
24049;DHT22;12250;50.956;4.746;2024-02-23T01:04:57;6.10;99.90
24049;DHT22;12250;50.956;4.746;2024-02-23T01:07:24;6.10;99.90
24049;DHT22;12250;50.956;4.746;2024-02-23T01:09:50;6.10;99.90
24049;DHT22;12250;50.956;4.746;2024-02-23T01:12:16;6.20;99.90
24049;DHT22;12250;50.956;4.746;2024-02-23T01:14:42;6.20;99.90
24049;DHT22;12250;50.956;4.746;2024-02-23T01:17:07;6.10;99.90
24049;DHT22;12250;50.956;4.746;2024-02-23T01:19:33;6.00;99.90
24049;DHT22;12250;50.956;4.746;2024-02-23T01:21:59;5.80;99.90
24049;DHT22;12250;50.956;4.746;2024-02-23T01:24:28;5.80;99.90
24049;DHT22;12250;50.956;4.746;2024-02-23T01:26:55;5.80;99.90
24049;DHT22;12250;50.956;4.746;2024-02-23T01:29:22;5.80;99.90
24049;DHT22;12250;50.956;4.746;2024-02-23T01:31:50;5.90;99.90
24049;DHT22;12250;50.956;4.746;2024-02-23T01:34:17;5.80;99.90
24049;DHT22;12250;50.956;4.746;2024-02-23T01:36:43;5.70;99.90
24049;DHT22;12250;50.956;4.746;2024-02-23T01:39:09;5.70;99.90
24049;DHT22;12250;50.956;4.746;2024-02-23T01:41:35;5.70;99.90
24049;DHT22;12250;50.956;4.746;2024-02-23T01:44:01;5.60;99.90
24049;DHT22;12250;50.956;4.746;2024-02-23T01:46:27;5.60;99.90
24049;DHT22;12250;50.956;4.746;2024-02-23T01:48:53;5.60;99.90
24049;DHT22;12250;50.956;4.746;2024-02-23T01:51:19;5.60;99.90
24049;DHT22;12250;50.956;4.746;2024-02-23T01:53:45;5.50;99.90
24049;DHT22;12250;50.956;4.746;2024-02-23T01:56:12;5.50;99.90
24049;DHT22;12250;50.956;4.746;2024-02-23T01:58:39;5.50;99.90
24049;DHT22;12250;50.956;4.746;2024-02-23T02:01:05;5.50;99.90
24049;DHT22;12250;50.956;4.746;2024-02-23T02:03:32;5.50;99.90
24049;DHT22;12250;50.956;4.746;2024-02-23T02:05:58;5.50;99.90
24049;DHT22;12250;50.956;4.746;2024-02-23T02:08:25;5.50;99.90
24049;DHT22;12250;50.956;4.746;2024-02-23T02:10:51;5.60;99.90
24049;DHT22;12250;50.956;4.746;2024-02-23T02:13:17;5.60;99.90
24049;DHT22;12250;50.956;4.746;2024-02-23T02:15:43;5.60;99.90
24049;DHT22;12250;50.956;4.746;2024-02-23T02:18:11;5.60;99.90
24049;DHT22;12250;50.956;4.746;2024-02-23T02:20:40;5.70;99.90
24049;DHT22;12250;50.956;4.746;2024-02-23T02:23:15;5.70;99.90
24049;DHT22;12250;50.956;4.746;2024-02-23T02:25:41;5.80;99.90
24049;DHT22;12250;50.956;4.746;2024-02-23T02:28:07;5.90;99.90
24049;DHT22;12250;50.956;4.746;2024-02-23T02:30:33;5.80;99.90
24049;DHT22;12250;50.956;4.746;2024-02-23T02:32:59;5.80;99.90
24049;DHT22;12250;50.956;4.746;2024-02-23T02:35:24;5.70;99.90
24049;DHT22;12250;50.956;4.746;2024-02-23T02:37:50;5.60;99.90
24049;DHT22;12250;50.956;4.746;2024-02-23T02:40:16;5.60;99.90
24049;DHT22;12250;50.956;4.746;2024-02-23T02:42:41;5.60;99.90
24049;DHT22;12250;50.956;4.746;2024-02-23T02:45:07;5.70;99.90
24049;DHT22;12250;50.956;4.746;2024-02-23T02:47:33;5.70;99.90
24049;DHT22;12250;50.956;4.746;2024-02-23T02:49:59;5.80;99.90
24049;DHT22;12250;50.956;4.746;2024-02-23T02:52:24;5.70;99.90
24049;DHT22;12250;50.956;4.746;2024-02-23T02:54:50;5.90;99.90
24049;DHT22;12250;50.956;4.746;2024-02-23T02:57:16;5.90;99.90
24049;DHT22;12250;50.956;4.746;2024-02-23T02:59:42;5.90;99.90
24049;DHT22;12250;50.956;4.746;2024-02-23T03:02:09;6.00;99.90
24049;DHT22;12250;50.956;4.746;2024-02-23T03:04:35;6.10;99.90
24049;DHT22;12250;50.956;4.746;2024-02-23T03:07:01;6.10;99.90
24049;DHT22;12250;50.956;4.746;2024-02-23T03:09:26;6.20;99.90
24049;DHT22;12250;50.956;4.746;2024-02-23T03:11:52;6.30;99.90
24049;DHT22;12250;50.956;4.746;2024-02-23T03:14:18;6.30;99.90
24049;DHT22;12250;50.956;4.746;2024-02-23T03:16:46;6.20;99.90
24049;DHT22;12250;50.956;4.746;2024-02-23T03:19:13;6.20;99.90
24049;DHT22;12250;50.956;4.746;2024-02-23T03:21:39;6.20;99.90
24049;DHT22;12250;50.956;4.746;2024-02-23T03:24:04;6.20;99.90
24049;DHT22;12250;50.956;4.746;2024-02-23T03:26:30;6.20;99.90
24049;DHT22;12250;50.956;4.746;2024-02-23T03:28:55;6.30;99.90
24049;DHT22;12250;50.956;4.746;2024-02-23T03:31:21;6.30;99.90
24049;DHT22;12250;50.956;4.746;2024-02-23T03:33:47;6.20;99.90
24049;DHT22;12250;50.956;4.746;2024-02-23T03:36:12;6.10;99.90
24049;DHT22;12250;50.956;4.746;2024-02-23T03:38:38;6.10;99.90
24049;DHT22;12250;50.956;4.746;2024-02-23T03:41:04;6.10;99.90
24049;DHT22;12250;50.956;4.746;2024-02-23T03:43:29;6.10;99.90
24049;DHT22;12250;50.956;4.746;2024-02-23T03:45:55;6.00;99.90
24049;DHT22;12250;50.956;4.746;2024-02-23T03:48:21;6.00;99.90
24049;DHT22;12250;50.956;4.746;2024-02-23T03:50:46;6.00;99.90
24049;DHT22;12250;50.956;4.746;2024-02-23T03:53:12;6.00;99.90
24049;DHT22;12250;50.956;4.746;2024-02-23T03:55:37;6.00;99.90
24049;DHT22;12250;50.956;4.746;2024-02-23T03:58:03;6.10;99.90
24049;DHT22;12250;50.956;4.746;2024-02-23T04:00:29;6.10;99.90
24049;DHT22;12250;50.956;4.746;2024-02-23T04:02:54;6.10;99.90
24049;DHT22;12250;50.956;4.746;2024-02-23T04:05:20;6.20;99.90
24049;DHT22;12250;50.956;4.746;2024-02-23T04:07:46;6.20;99.90
24049;DHT22;12250;50.956;4.746;2024-02-23T04:10:11;6.20;99.90
24049;DHT22;12250;50.956;4.746;2024-02-23T04:12:42;6.20;99.90
24049;DHT22;12250;50.956;4.746;2024-02-23T04:15:09;6.30;99.90
24049;DHT22;12250;50.956;4.746;2024-02-23T04:17:35;6.40;99.90
24049;DHT22;12250;50.956;4.746;2024-02-23T04:20:06;6.50;99.90
24049;DHT22;12250;50.956;4.746;2024-02-23T04:22:31;6.60;99.90
24049;DHT22;12250;50.956;4.746;2024-02-23T04:24:57;6.60;99.90
24049;DHT22;12250;50.956;4.746;2024-02-23T04:27:23;6.70;99.90
24049;DHT22;12250;50.956;4.746;2024-02-23T04:29:48;6.80;99.90
24049;DHT22;12250;50.956;4.746;2024-02-23T04:32:14;6.80;99.90
24049;DHT22;12250;50.956;4.746;2024-02-23T04:34:40;6.80;99.90
24049;DHT22;12250;50.956;4.746;2024-02-23T04:37:06;6.80;99.90
24049;DHT22;12250;50.956;4.746;2024-02-23T04:39:32;6.90;99.90
24049;DHT22;12250;50.956;4.746;2024-02-23T04:41:58;6.90;99.90
24049;DHT22;12250;50.956;4.746;2024-02-23T04:44:23;6.90;99.90
24049;DHT22;12250;50.956;4.746;2024-02-23T04:46:49;6.90;99.90
24049;DHT22;12250;50.956;4.746;2024-02-23T04:49:15;6.90;99.90
24049;DHT22;12250;50.956;4.746;2024-02-23T04:51:41;6.90;99.90
24049;DHT22;12250;50.956;4.746;2024-02-23T04:54:06;7.00;99.90
24049;DHT22;12250;50.956;4.746;2024-02-23T04:56:32;7.00;99.90
24049;DHT22;12250;50.956;4.746;2024-02-23T04:58:58;7.10;99.90
24049;DHT22;12250;50.956;4.746;2024-02-23T05:01:24;7.10;99.90
24049;DHT22;12250;50.956;4.746;2024-02-23T05:03:50;7.00;99.90
24049;DHT22;12250;50.956;4.746;2024-02-23T05:06:15;7.00;99.90
24049;DHT22;12250;50.956;4.746;2024-02-23T05:08:41;7.10;99.90
24049;DHT22;12250;50.956;4.746;2024-02-23T05:11:07;7.10;99.90
24049;DHT22;12250;50.956;4.746;2024-02-23T05:13:32;7.20;99.90
24049;DHT22;12250;50.956;4.746;2024-02-23T05:15:58;7.20;99.90
24049;DHT22;12250;50.956;4.746;2024-02-23T05:18:24;7.10;99.90
24049;DHT22;12250;50.956;4.746;2024-02-23T05:20:49;7.10;99.90
24049;DHT22;12250;50.956;4.746;2024-02-23T05:23:15;7.10;99.90
24049;DHT22;12250;50.956;4.746;2024-02-23T05:25:43;7.10;99.90
24049;DHT22;12250;50.956;4.746;2024-02-23T05:28:09;7.10;99.90
24049;DHT22;12250;50.956;4.746;2024-02-23T05:30:35;7.20;99.90
24049;DHT22;12250;50.956;4.746;2024-02-23T05:33:00;7.10;99.90
24049;DHT22;12250;50.956;4.746;2024-02-23T05:35:29;7.10;99.90
24049;DHT22;12250;50.956;4.746;2024-02-23T05:37:54;7.20;99.90
24049;DHT22;12250;50.956;4.746;2024-02-23T05:40:20;7.20;99.90
24049;DHT22;12250;50.956;4.746;2024-02-23T05:42:46;7.10;99.90
24049;DHT22;12250;50.956;4.746;2024-02-23T05:45:12;7.10;99.90
24049;DHT22;12250;50.956;4.746;2024-02-23T05:47:38;7.10;99.90
24049;DHT22;12250;50.956;4.746;2024-02-23T05:50:04;7.10;99.90
24049;DHT22;12250;50.956;4.746;2024-02-23T05:52:34;7.00;99.90
24049;DHT22;12250;50.956;4.746;2024-02-23T05:55:00;7.00;99.90
24049;DHT22;12250;50.956;4.746;2024-02-23T05:57:26;7.00;99.90
24049;DHT22;12250;50.956;4.746;2024-02-23T05:59:53;6.90;99.90
24049;DHT22;12250;50.956;4.746;2024-02-23T06:02:18;6.90;99.90
24049;DHT22;12250;50.956;4.746;2024-02-23T06:04:44;6.90;99.90
24049;DHT22;12250;50.956;4.746;2024-02-23T06:07:10;7.10;99.90
24049;DHT22;12250;50.956;4.746;2024-02-23T06:09:37;7.10;99.90
24049;DHT22;12250;50.956;4.746;2024-02-23T06:12:02;7.10;99.90
24049;DHT22;12250;50.956;4.746;2024-02-23T06:14:28;7.10;99.90
24049;DHT22;12250;50.956;4.746;2024-02-23T06:16:54;7.10;99.90
24049;DHT22;12250;50.956;4.746;2024-02-23T06:19:19;7.10;99.90
24049;DHT22;12250;50.956;4.746;2024-02-23T06:21:48;7.20;99.90
24049;DHT22;12250;50.956;4.746;2024-02-23T06:24:15;7.20;99.90
24049;DHT22;12250;50.956;4.746;2024-02-23T06:26:41;7.20;99.90
24049;DHT22;12250;50.956;4.746;2024-02-23T06:29:06;7.20;99.90
24049;DHT22;12250;50.956;4.746;2024-02-23T06:31:34;7.10;99.90
24049;DHT22;12250;50.956;4.746;2024-02-23T06:34:00;7.00;99.90
24049;DHT22;12250;50.956;4.746;2024-02-23T06:36:25;6.90;99.90
24049;DHT22;12250;50.956;4.746;2024-02-23T06:38:51;6.90;99.90
24049;DHT22;12250;50.956;4.746;2024-02-23T06:41:17;6.90;99.90
24049;DHT22;12250;50.956;4.746;2024-02-23T06:43:43;6.90;99.90
24049;DHT22;12250;50.956;4.746;2024-02-23T06:46:09;7.10;99.90
24049;DHT22;12250;50.956;4.746;2024-02-23T06:48:35;7.20;99.90
24049;DHT22;12250;50.956;4.746;2024-02-23T06:51:02;7.10;99.90
24049;DHT22;12250;50.956;4.746;2024-02-23T06:53:29;7.20;99.90
24049;DHT22;12250;50.956;4.746;2024-02-23T06:55:55;7.20;99.90
24049;DHT22;12250;50.956;4.746;2024-02-23T06:58:20;7.20;99.90
24049;DHT22;12250;50.956;4.746;2024-02-23T07:00:47;7.30;99.90
24049;DHT22;12250;50.956;4.746;2024-02-23T07:03:13;7.30;99.90
24049;DHT22;12250;50.956;4.746;2024-02-23T07:05:41;7.30;99.90
24049;DHT22;12250;50.956;4.746;2024-02-23T07:08:08;7.20;99.90
24049;DHT22;12250;50.956;4.746;2024-02-23T07:10:34;7.30;99.90
24049;DHT22;12250;50.956;4.746;2024-02-23T07:12:59;7.40;99.90
24049;DHT22;12250;50.956;4.746;2024-02-23T07:15:25;7.50;99.90
24049;DHT22;12250;50.956;4.746;2024-02-23T07:17:55;7.60;99.90
24049;DHT22;12250;50.956;4.746;2024-02-23T07:20:21;7.70;99.90
24049;DHT22;12250;50.956;4.746;2024-02-23T07:22:47;7.70;99.90
24049;DHT22;12250;50.956;4.746;2024-02-23T07:25:17;7.90;99.90
24049;DHT22;12250;50.956;4.746;2024-02-23T07:27:43;7.90;99.90
24049;DHT22;12250;50.956;4.746;2024-02-23T07:30:09;7.80;99.90
24049;DHT22;12250;50.956;4.746;2024-02-23T07:32:35;7.80;99.90
24049;DHT22;12250;50.956;4.746;2024-02-23T07:35:01;7.90;99.90
24049;DHT22;12250;50.956;4.746;2024-02-23T07:37:29;7.80;99.90
24049;DHT22;12250;50.956;4.746;2024-02-23T07:39:55;7.80;99.90
24049;DHT22;12250;50.956;4.746;2024-02-23T07:42:21;7.90;99.90
24049;DHT22;12250;50.956;4.746;2024-02-23T07:44:46;7.90;99.90
24049;DHT22;12250;50.956;4.746;2024-02-23T07:47:12;7.80;99.90
24049;DHT22;12250;50.956;4.746;2024-02-23T07:49:38;7.80;99.90
24049;DHT22;12250;50.956;4.746;2024-02-23T07:52:06;7.90;99.90
24049;DHT22;12250;50.956;4.746;2024-02-23T07:54:32;7.90;99.90
24049;DHT22;12250;50.956;4.746;2024-02-23T07:56:58;8.00;99.90
24049;DHT22;12250;50.956;4.746;2024-02-23T07:59:24;8.00;99.90
24049;DHT22;12250;50.956;4.746;2024-02-23T08:01:50;8.00;99.90
24049;DHT22;12250;50.956;4.746;2024-02-23T08:04:16;8.00;99.90
24049;DHT22;12250;50.956;4.746;2024-02-23T08:06:42;8.10;99.90
24049;DHT22;12250;50.956;4.746;2024-02-23T08:09:08;8.20;99.90
24049;DHT22;12250;50.956;4.746;2024-02-23T08:11:34;8.50;99.90
24049;DHT22;12250;50.956;4.746;2024-02-23T08:14:00;8.80;99.90
24049;DHT22;12250;50.956;4.746;2024-02-23T08:16:27;8.90;99.90
24049;DHT22;12250;50.956;4.746;2024-02-23T08:18:53;8.90;99.90
24049;DHT22;12250;50.956;4.746;2024-02-23T08:21:18;8.80;99.90
24049;DHT22;12250;50.956;4.746;2024-02-23T08:23:45;8.90;99.90
24049;DHT22;12250;50.956;4.746;2024-02-23T08:26:11;8.90;99.90
24049;DHT22;12250;50.956;4.746;2024-02-23T08:28:36;8.80;99.90
24049;DHT22;12250;50.956;4.746;2024-02-23T08:31:02;8.60;99.90
24049;DHT22;12250;50.956;4.746;2024-02-23T08:33:28;8.60;99.90
24049;DHT22;12250;50.956;4.746;2024-02-23T08:35:53;8.60;99.90
24049;DHT22;12250;50.956;4.746;2024-02-23T08:38:19;8.50;99.90
24049;DHT22;12250;50.956;4.746;2024-02-23T08:40:45;8.30;99.90
24049;DHT22;12250;50.956;4.746;2024-02-23T08:43:11;8.10;99.90
24049;DHT22;12250;50.956;4.746;2024-02-23T08:45:36;8.10;99.90
24049;DHT22;12250;50.956;4.746;2024-02-23T08:48:02;8.10;99.90
24049;DHT22;12250;50.956;4.746;2024-02-23T08:50:29;8.00;99.90
24049;DHT22;12250;50.956;4.746;2024-02-23T08:52:55;7.90;99.90
24049;DHT22;12250;50.956;4.746;2024-02-23T08:55:20;7.90;99.90
24049;DHT22;12250;50.956;4.746;2024-02-23T08:57:47;7.70;99.90
24049;DHT22;12250;50.956;4.746;2024-02-23T09:00:13;7.70;99.90
24049;DHT22;12250;50.956;4.746;2024-02-23T09:02:40;7.60;99.90
24049;DHT22;12250;50.956;4.746;2024-02-23T09:05:08;7.50;99.90
24049;DHT22;12250;50.956;4.746;2024-02-23T09:07:34;7.40;99.90
24049;DHT22;12250;50.956;4.746;2024-02-23T09:10:01;7.50;99.90
24049;DHT22;12250;50.956;4.746;2024-02-23T09:12:27;7.60;99.90
24049;DHT22;12250;50.956;4.746;2024-02-23T09:14:52;7.70;99.90
24049;DHT22;12250;50.956;4.746;2024-02-23T09:17:18;7.70;99.90
24049;DHT22;12250;50.956;4.746;2024-02-23T09:19:46;7.80;99.90
24049;DHT22;12250;50.956;4.746;2024-02-23T09:22:11;7.60;99.90
24049;DHT22;12250;50.956;4.746;2024-02-23T09:24:41;7.60;99.90
24049;DHT22;12250;50.956;4.746;2024-02-23T09:27:07;7.70;99.90
24049;DHT22;12250;50.956;4.746;2024-02-23T09:29:33;7.60;99.90
24049;DHT22;12250;50.956;4.746;2024-02-23T09:32:00;7.50;99.90
24049;DHT22;12250;50.956;4.746;2024-02-23T09:34:26;7.60;99.90
24049;DHT22;12250;50.956;4.746;2024-02-23T09:36:52;7.80;99.90
24049;DHT22;12250;50.956;4.746;2024-02-23T09:39:18;7.90;99.90
24049;DHT22;12250;50.956;4.746;2024-02-23T09:41:44;7.80;99.90
24049;DHT22;12250;50.956;4.746;2024-02-23T09:44:09;7.80;99.90
24049;DHT22;12250;50.956;4.746;2024-02-23T09:46:40;7.80;99.90
24049;DHT22;12250;50.956;4.746;2024-02-23T09:49:11;8.00;99.90
24049;DHT22;12250;50.956;4.746;2024-02-23T09:51:38;8.00;99.90
24049;DHT22;12250;50.956;4.746;2024-02-23T09:54:04;8.00;99.90
24049;DHT22;12250;50.956;4.746;2024-02-23T09:56:30;8.00;99.90
24049;DHT22;12250;50.956;4.746;2024-02-23T09:58:58;8.10;99.90
24049;DHT22;12250;50.956;4.746;2024-02-23T10:01:29;8.70;99.90
24049;DHT22;12250;50.956;4.746;2024-02-23T10:04:02;9.50;99.90
24049;DHT22;12250;50.956;4.746;2024-02-23T10:06:32;10.90;99.90
24049;DHT22;12250;50.956;4.746;2024-02-23T10:08:58;11.60;99.90
24049;DHT22;12250;50.956;4.746;2024-02-23T10:11:24;12.60;99.90
24049;DHT22;12250;50.956;4.746;2024-02-23T10:13:51;13.90;99.90
24049;DHT22;12250;50.956;4.746;2024-02-23T10:16:20;14.00;99.90
24049;DHT22;12250;50.956;4.746;2024-02-23T10:18:49;14.10;99.90
24049;DHT22;12250;50.956;4.746;2024-02-23T10:21:16;15.00;99.90
24049;DHT22;12250;50.956;4.746;2024-02-23T10:23:43;14.80;99.90
24049;DHT22;12250;50.956;4.746;2024-02-23T10:26:09;13.70;99.90
24049;DHT22;12250;50.956;4.746;2024-02-23T10:28:36;13.30;99.90
24049;DHT22;12250;50.956;4.746;2024-02-23T10:31:05;13.10;99.90
24049;DHT22;12250;50.956;4.746;2024-02-23T10:33:31;13.10;99.90
24049;DHT22;12250;50.956;4.746;2024-02-23T10:35:57;13.30;99.90
24049;DHT22;12250;50.956;4.746;2024-02-23T10:38:23;13.30;99.90
24049;DHT22;12250;50.956;4.746;2024-02-23T10:40:50;13.60;99.90
24049;DHT22;12250;50.956;4.746;2024-02-23T10:43:19;14.60;99.90
24049;DHT22;12250;50.956;4.746;2024-02-23T10:45:46;16.40;99.90
24049;DHT22;12250;50.956;4.746;2024-02-23T10:48:12;17.10;98.00
24049;DHT22;12250;50.956;4.746;2024-02-23T10:50:41;16.50;98.20
24049;DHT22;12250;50.956;4.746;2024-02-23T10:53:07;16.00;98.10
24049;DHT22;12250;50.956;4.746;2024-02-23T10:55:37;15.20;99.40
24049;DHT22;12250;50.956;4.746;2024-02-23T10:58:08;14.50;99.90
24049;DHT22;12250;50.956;4.746;2024-02-23T11:00:37;14.10;99.90
24049;DHT22;12250;50.956;4.746;2024-02-23T11:03:03;13.90;99.90
24049;DHT22;12250;50.956;4.746;2024-02-23T11:05:31;13.50;99.90
24049;DHT22;12250;50.956;4.746;2024-02-23T11:07:57;13.70;99.90
24049;DHT22;12250;50.956;4.746;2024-02-23T11:10:23;13.80;99.90
24049;DHT22;12250;50.956;4.746;2024-02-23T11:13:08;14.00;99.90
24049;DHT22;12250;50.956;4.746;2024-02-23T11:15:34;14.10;99.90
24049;DHT22;12250;50.956;4.746;2024-02-23T11:18:27;14.00;99.90
24049;DHT22;12250;50.956;4.746;2024-02-23T11:21:03;13.80;99.90
24049;DHT22;12250;50.956;4.746;2024-02-23T11:23:47;13.70;99.90
24049;DHT22;12250;50.956;4.746;2024-02-23T11:26:16;13.60;99.90
24049;DHT22;12250;50.956;4.746;2024-02-23T11:28:52;13.50;99.90
24049;DHT22;12250;50.956;4.746;2024-02-23T11:31:25;13.30;99.90
24049;DHT22;12250;50.956;4.746;2024-02-23T11:33:57;13.10;99.90
24049;DHT22;12250;50.956;4.746;2024-02-23T11:36:31;13.00;99.90
24049;DHT22;12250;50.956;4.746;2024-02-23T11:39:00;12.90;99.90
24049;DHT22;12250;50.956;4.746;2024-02-23T11:41:26;12.80;99.90
24049;DHT22;12250;50.956;4.746;2024-02-23T11:43:54;12.60;99.90
24049;DHT22;12250;50.956;4.746;2024-02-23T11:46:21;12.40;99.90
24049;DHT22;12250;50.956;4.746;2024-02-23T11:48:48;12.10;99.90
24049;DHT22;12250;50.956;4.746;2024-02-23T11:51:19;11.90;99.90
24049;DHT22;12250;50.956;4.746;2024-02-23T11:53:46;11.50;99.90
24049;DHT22;12250;50.956;4.746;2024-02-23T11:56:13;11.30;99.90
24049;DHT22;12250;50.956;4.746;2024-02-23T11:58:40;11.20;99.90
24049;DHT22;12250;50.956;4.746;2024-02-23T12:01:05;11.10;99.90
24049;DHT22;12250;50.956;4.746;2024-02-23T12:03:34;11.20;99.90
24049;DHT22;12250;50.956;4.746;2024-02-23T12:06:01;11.50;99.90
24049;DHT22;12250;50.956;4.746;2024-02-23T12:08:28;11.60;99.90
24049;DHT22;12250;50.956;4.746;2024-02-23T12:10:55;11.90;99.90
24049;DHT22;12250;50.956;4.746;2024-02-23T12:13:21;12.30;99.90
24049;DHT22;12250;50.956;4.746;2024-02-23T12:15:48;12.30;99.90
24049;DHT22;12250;50.956;4.746;2024-02-23T12:18:14;12.30;99.90
24049;DHT22;12250;50.956;4.746;2024-02-23T12:20:40;12.10;99.90
24049;DHT22;12250;50.956;4.746;2024-02-23T12:23:06;12.40;99.90
24049;DHT22;12250;50.956;4.746;2024-02-23T12:25:33;12.50;99.90
24049;DHT22;12250;50.956;4.746;2024-02-23T12:27:59;12.80;99.90
24049;DHT22;12250;50.956;4.746;2024-02-23T12:30:30;13.00;99.90
24049;DHT22;12250;50.956;4.746;2024-02-23T12:33:04;12.90;99.90
24049;DHT22;12250;50.956;4.746;2024-02-23T12:35:30;13.00;99.90
24049;DHT22;12250;50.956;4.746;2024-02-23T12:37:55;13.00;99.90
24049;DHT22;12250;50.956;4.746;2024-02-23T12:40:21;13.00;99.90
24049;DHT22;12250;50.956;4.746;2024-02-23T12:42:47;12.90;99.90
24049;DHT22;12250;50.956;4.746;2024-02-23T12:45:14;13.00;99.90
24049;DHT22;12250;50.956;4.746;2024-02-23T12:47:40;13.20;99.90
24049;DHT22;12250;50.956;4.746;2024-02-23T12:50:06;13.10;99.90
24049;DHT22;12250;50.956;4.746;2024-02-23T12:52:34;13.10;99.90
24049;DHT22;12250;50.956;4.746;2024-02-23T12:54:59;13.20;99.90
24049;DHT22;12250;50.956;4.746;2024-02-23T12:57:25;13.40;99.90
24049;DHT22;12250;50.956;4.746;2024-02-23T12:59:51;13.20;99.90
24049;DHT22;12250;50.956;4.746;2024-02-23T13:02:16;13.30;99.90
24049;DHT22;12250;50.956;4.746;2024-02-23T13:04:43;13.30;99.90
24049;DHT22;12250;50.956;4.746;2024-02-23T13:07:15;13.20;99.90
24049;DHT22;12250;50.956;4.746;2024-02-23T13:09:42;13.60;99.90
24049;DHT22;12250;50.956;4.746;2024-02-23T13:12:08;13.60;99.90
24049;DHT22;12250;50.956;4.746;2024-02-23T13:14:34;13.60;99.90
24049;DHT22;12250;50.956;4.746;2024-02-23T13:16:59;13.60;99.90
24049;DHT22;12250;50.956;4.746;2024-02-23T13:19:25;13.20;99.90
24049;DHT22;12250;50.956;4.746;2024-02-23T13:21:51;13.00;99.90
24049;DHT22;12250;50.956;4.746;2024-02-23T13:24:17;13.00;99.90
24049;DHT22;12250;50.956;4.746;2024-02-23T13:26:42;13.00;99.90
24049;DHT22;12250;50.956;4.746;2024-02-23T13:29:08;13.20;99.90
24049;DHT22;12250;50.956;4.746;2024-02-23T13:31:34;13.20;99.90
24049;DHT22;12250;50.956;4.746;2024-02-23T13:33:59;13.30;99.90
24049;DHT22;12250;50.956;4.746;2024-02-23T13:36:25;13.30;99.90
24049;DHT22;12250;50.956;4.746;2024-02-23T13:38:50;13.20;99.90
24049;DHT22;12250;50.956;4.746;2024-02-23T13:41:17;13.10;99.90
24049;DHT22;12250;50.956;4.746;2024-02-23T13:43:43;13.10;99.90
24049;DHT22;12250;50.956;4.746;2024-02-23T13:46:08;13.20;99.90
24049;DHT22;12250;50.956;4.746;2024-02-23T13:48:36;13.30;99.90
24049;DHT22;12250;50.956;4.746;2024-02-23T13:51:02;13.50;99.90
24049;DHT22;12250;50.956;4.746;2024-02-23T13:53:30;13.50;99.90
24049;DHT22;12250;50.956;4.746;2024-02-23T13:55:57;13.60;99.90
24049;DHT22;12250;50.956;4.746;2024-02-23T13:58:22;13.30;99.90
24049;DHT22;12250;50.956;4.746;2024-02-23T14:00:48;13.40;99.90
24049;DHT22;12250;50.956;4.746;2024-02-23T14:03:16;13.30;99.90
24049;DHT22;12250;50.956;4.746;2024-02-23T14:05:47;13.00;99.70
24049;DHT22;12250;50.956;4.746;2024-02-23T14:08:12;12.90;99.90
24049;DHT22;12250;50.956;4.746;2024-02-23T14:10:39;12.30;99.90
24049;DHT22;12250;50.956;4.746;2024-02-23T14:13:06;12.10;99.90
24049;DHT22;12250;50.956;4.746;2024-02-23T14:15:32;12.10;99.90
24049;DHT22;12250;50.956;4.746;2024-02-23T14:17:58;12.00;99.90
24049;DHT22;12250;50.956;4.746;2024-02-23T14:20:24;11.90;99.90
24049;DHT22;12250;50.956;4.746;2024-02-23T14:22:49;11.80;99.90
24049;DHT22;12250;50.956;4.746;2024-02-23T14:25:16;11.70;99.90
24049;DHT22;12250;50.956;4.746;2024-02-23T14:27:41;11.60;99.90
24049;DHT22;12250;50.956;4.746;2024-02-23T14:30:08;11.80;99.90
24049;DHT22;12250;50.956;4.746;2024-02-23T14:32:33;11.80;99.90
24049;DHT22;12250;50.956;4.746;2024-02-23T14:35:04;11.70;99.90
24049;DHT22;12250;50.956;4.746;2024-02-23T14:37:30;11.70;99.90
24049;DHT22;12250;50.956;4.746;2024-02-23T14:39:56;11.70;99.90
24049;DHT22;12250;50.956;4.746;2024-02-23T14:42:21;11.80;99.90
24049;DHT22;12250;50.956;4.746;2024-02-23T14:44:47;11.80;99.90
24049;DHT22;12250;50.956;4.746;2024-02-23T14:47:13;11.60;99.90
24049;DHT22;12250;50.956;4.746;2024-02-23T14:49:38;11.50;99.90
24049;DHT22;12250;50.956;4.746;2024-02-23T14:52:04;11.40;99.90
24049;DHT22;12250;50.956;4.746;2024-02-23T14:54:30;11.60;99.90
24049;DHT22;12250;50.956;4.746;2024-02-23T14:56:56;11.50;99.90
24049;DHT22;12250;50.956;4.746;2024-02-23T14:59:21;11.60;99.90
24049;DHT22;12250;50.956;4.746;2024-02-23T15:01:47;11.60;99.90
24049;DHT22;12250;50.956;4.746;2024-02-23T15:04:12;11.50;99.90
24049;DHT22;12250;50.956;4.746;2024-02-23T15:06:38;11.40;99.90
24049;DHT22;12250;50.956;4.746;2024-02-23T15:09:04;11.50;99.90
24049;DHT22;12250;50.956;4.746;2024-02-23T15:11:31;11.60;99.90
24049;DHT22;12250;50.956;4.746;2024-02-23T15:13:56;11.70;99.90
24049;DHT22;12250;50.956;4.746;2024-02-23T15:16:29;11.70;99.90
24049;DHT22;12250;50.956;4.746;2024-02-23T15:18:58;11.70;99.90
24049;DHT22;12250;50.956;4.746;2024-02-23T15:21:24;11.70;99.90
24049;DHT22;12250;50.956;4.746;2024-02-23T15:23:50;11.80;99.90
24049;DHT22;12250;50.956;4.746;2024-02-23T15:26:16;11.70;99.90
24049;DHT22;12250;50.956;4.746;2024-02-23T15:28:42;11.70;99.90
24049;DHT22;12250;50.956;4.746;2024-02-23T15:31:08;11.60;99.90
24049;DHT22;12250;50.956;4.746;2024-02-23T15:33:36;11.40;99.90
24049;DHT22;12250;50.956;4.746;2024-02-23T15:36:07;11.20;99.90